createdAt,value
2022-09-30T00:01:44.180Z,94766.50
2022-09-30T00:04:17.554Z,94788.69
2022-09-30T00:06:46.978Z,94792.16
2022-09-30T00:09:15.653Z,94783.63
2022-09-30T00:11:44.646Z,94788.16
2022-09-30T00:14:17.930Z,94799.38
2022-09-30T00:16:46.827Z,94765.16
2022-09-30T00:19:17.373Z,94795.66
2022-09-30T00:21:46.571Z,94791.09
2022-09-30T00:24:14.939Z,94791.91
2022-09-30T00:26:43.346Z,94774.81
2022-09-30T00:29:12.298Z,94803.69
2022-09-30T00:31:40.934Z,94795.41
2022-09-30T00:34:09.567Z,94797.81
2022-09-30T00:36:43.767Z,94755.53
2022-09-30T00:39:15.072Z,94794.06
2022-09-30T00:41:44.542Z,94796.72
2022-09-30T00:44:48.166Z,94800.47
2022-09-30T00:47:32.144Z,94805.31
2022-09-30T00:50:01.293Z,94803.69
2022-09-30T00:52:32.210Z,94796.72
2022-09-30T00:55:03.266Z,94812.78
2022-09-30T00:57:32.331Z,94809.56
2022-09-30T01:00:01.737Z,94816.00
2022-09-30T01:02:30.877Z,94814.38
2022-09-30T01:04:59.334Z,94814.13
2022-09-30T01:07:28.321Z,94811.69
2022-09-30T01:09:59.493Z,94818.13
2022-09-30T01:12:28.424Z,94809.84
2022-09-30T01:14:58.963Z,94810.66
2022-09-30T01:17:38.568Z,94819.72
2022-09-30T01:20:38.959Z,94808.75
2022-09-30T01:23:48.103Z,94807.97
2022-09-30T01:26:45.948Z,94809.28
2022-09-30T01:30:01.790Z,94811.44
2022-09-30T01:32:46.092Z,94811.69
2022-09-30T01:35:26.846Z,94817.03
2022-09-30T01:38:05.293Z,94813.81
2022-09-30T01:40:42.910Z,94806.59
2022-09-30T01:43:20.129Z,94807.94
2022-09-30T01:45:58.590Z,94811.16
2022-09-30T01:48:36.549Z,94810.06
2022-09-30T01:51:11.537Z,94815.94
2022-09-30T01:53:45.147Z,94830.88
2022-09-30T01:56:18.685Z,94816.94
2022-09-30T01:58:54.776Z,94818.84
2022-09-30T02:01:28.807Z,94822.56
2022-09-30T02:04:02.083Z,94826.59
2022-09-30T02:06:36.535Z,94824.97
2022-09-30T02:09:10.800Z,94826.56
2022-09-30T02:11:40.933Z,94829.25
2022-09-30T02:14:15.239Z,94823.38
2022-09-30T02:16:49.528Z,94827.63
2022-09-30T02:19:25.698Z,94827.63
2022-09-30T02:21:58.469Z,94826.53
2022-09-30T02:24:32.273Z,94825.19
2022-09-30T02:27:03.226Z,94827.31
2022-09-30T02:29:36.982Z,94825.97
2022-09-30T02:32:09.568Z,94828.06
2022-09-30T02:34:42.268Z,94838.81
2022-09-30T02:37:14.895Z,94831.84
2022-09-30T02:39:50.732Z,94840.38
2022-09-30T02:42:21.687Z,94830.97
2022-09-30T02:44:52.631Z,94829.91
2022-09-30T02:47:29.690Z,94835.53
2022-09-30T02:50:03.797Z,94837.13
2022-09-30T02:52:49.014Z,94838.22
2022-09-30T02:55:23.154Z,94840.63
2022-09-30T02:58:01.440Z,94823.75
2022-09-30T03:00:30.975Z,94839.56
2022-09-30T03:03:02.965Z,94843.00
2022-09-30T03:05:32.938Z,94846.19
2022-09-30T03:08:02.728Z,94840.31
2022-09-30T03:10:31.935Z,94846.16
2022-09-30T03:13:17.593Z,94798.19
2022-09-30T03:16:01.401Z,94846.69
2022-09-30T03:18:45.923Z,94859.78
2022-09-30T03:21:29.059Z,94844.50
2022-09-30T03:24:27.337Z,94868.00
2022-09-30T03:27:09.620Z,94867.44
2022-09-30T03:29:48.821Z,94873.59
2022-09-30T03:32:32.146Z,94874.94
2022-09-30T03:35:15.151Z,94864.94
2022-09-30T03:37:53.450Z,94877.06
2022-09-30T03:40:31.610Z,94874.38
2022-09-30T03:43:06.416Z,94854.22
2022-09-30T03:45:40.314Z,94885.56
2022-09-30T03:48:13.824Z,94886.59
2022-09-30T03:50:43.237Z,94885.56
2022-09-30T03:53:14.514Z,94890.41
2022-09-30T03:55:52.197Z,94890.41
2022-09-30T03:58:23.766Z,94864.63
2022-09-30T04:00:54.418Z,94894.34
2022-09-30T04:03:24.188Z,94892.75
2022-09-30T04:05:52.566Z,94894.59
2022-09-30T04:08:23.197Z,94908.28
2022-09-30T04:10:51.561Z,94901.59
2022-09-30T04:13:20.285Z,94903.66
2022-09-30T04:15:55.419Z,94908.44
2022-09-30T04:18:23.795Z,94915.59
2022-09-30T04:20:52.194Z,94905.44
2022-09-30T04:23:21.940Z,94906.22
2022-09-30T04:25:54.885Z,94908.63
2022-09-30T04:28:23.782Z,94906.22
2022-09-30T04:30:52.099Z,94907.84
2022-09-30T04:33:20.835Z,94903.00
2022-09-30T04:35:49.501Z,94904.88
2022-09-30T04:38:18.376Z,94904.09
2022-09-30T04:40:49.661Z,94913.13
2022-09-30T04:43:19.177Z,94917.94
2022-09-30T04:45:48.398Z,94920.59
2022-09-30T04:48:17.792Z,94917.94
2022-09-30T04:50:46.483Z,94919.22
2022-09-30T04:53:15.579Z,94923.22
2022-09-30T04:55:44.189Z,94918.38
2022-09-30T04:58:15.367Z,94914.91
2022-09-30T05:00:43.787Z,94855.06
2022-09-30T05:03:12.170Z,94908.53
2022-09-30T05:05:42.280Z,94916.22
2022-09-30T05:08:11.346Z,94920.47
2022-09-30T05:10:40.296Z,94927.41
2022-09-30T05:13:08.649Z,94935.97
2022-09-30T05:15:38.492Z,94933.81
2022-09-30T05:18:06.856Z,94935.88
2022-09-30T05:20:35.829Z,94919.78
2022-09-30T05:23:04.231Z,94941.72
2022-09-30T05:25:33.167Z,94941.22
2022-09-30T05:28:02.065Z,94896.66
2022-09-30T05:30:30.610Z,94939.03
2022-09-30T05:33:00.634Z,94941.47
2022-09-30T05:35:29.926Z,94938.50
2022-09-30T05:37:59.058Z,94947.59
2022-09-30T05:40:27.719Z,94938.00
2022-09-30T05:42:58.222Z,94949.22
2022-09-30T05:45:27.104Z,94953.50
2022-09-30T05:47:55.982Z,94955.09
2022-09-30T05:50:27.127Z,94913.75
2022-09-30T05:52:55.510Z,94965.88
2022-09-30T05:55:24.254Z,94968.03
2022-09-30T05:57:53.678Z,94976.34
2022-09-30T06:00:22.365Z,94980.91
2022-09-30T06:02:53.656Z,94983.88
2022-09-30T06:05:22.917Z,94984.41
2022-09-30T06:07:52.975Z,94981.25
2022-09-30T06:10:21.326Z,94986.88
2022-09-30T06:12:49.678Z,94984.25
2022-09-30T06:15:18.135Z,94986.50
2022-09-30T06:17:47.071Z,94990.25
2022-09-30T06:20:15.454Z,95000.44
2022-09-30T06:22:44.240Z,94996.75
2022-09-30T06:25:14.854Z,94999.44
2022-09-30T06:27:47.918Z,95009.63
2022-09-30T06:30:16.381Z,95004.28
2022-09-30T06:32:45.654Z,95007.25
2022-09-30T06:35:13.982Z,95013.44
2022-09-30T06:37:42.763Z,95000.47
2022-09-30T06:40:11.595Z,95016.94
2022-09-30T06:42:42.094Z,95020.47
2022-09-30T06:45:18.993Z,95027.72
2022-09-30T06:47:59.862Z,95031.22
2022-09-30T06:50:29.089Z,95031.25
2022-09-30T06:52:59.902Z,95037.72
2022-09-30T06:55:28.397Z,94993.19
2022-09-30T06:57:58.491Z,95043.13
2022-09-30T07:00:28.858Z,95038.34
2022-09-30T07:02:58.191Z,95048.00
2022-09-30T07:05:27.262Z,94991.66
2022-09-30T07:07:56.620Z,95053.72
2022-09-30T07:10:25.127Z,95055.09
2022-09-30T07:12:54.427Z,95063.13
2022-09-30T07:15:24.341Z,95067.19
2022-09-30T07:17:53.686Z,95071.22
2022-09-30T07:20:22.427Z,95069.38
2022-09-30T07:22:51.039Z,95068.09
2022-09-30T07:25:20.375Z,95073.44
2022-09-30T07:27:48.782Z,95057.41
2022-09-30T07:30:25.778Z,95071.13
2022-09-30T07:32:56.963Z,95071.41
2022-09-30T07:35:25.568Z,95076.84
2022-09-30T07:37:53.950Z,95079.53
2022-09-30T07:40:22.423Z,95041.47
2022-09-30T07:42:50.764Z,95084.38
2022-09-30T07:45:19.586Z,95057.56
2022-09-30T07:47:53.497Z,95086.81
2022-09-30T07:50:24.134Z,95087.63
2022-09-30T07:52:56.044Z,95088.69
2022-09-30T07:55:24.430Z,95091.91
2022-09-30T07:57:52.799Z,95097.25
2022-09-30T08:00:41.616Z,95103.69
2022-09-30T08:03:10.067Z,95106.91
2022-09-30T08:05:44.847Z,95113.31
2022-09-30T08:08:13.803Z,95114.41
2022-09-30T08:10:42.247Z,95113.31
2022-09-30T08:13:14.271Z,95071.50
2022-09-30T08:15:42.649Z,95117.56
2022-09-30T08:18:11.036Z,95119.47
2022-09-30T08:20:39.402Z,95113.25
2022-09-30T08:23:09.155Z,95033.44
2022-09-30T08:25:37.855Z,95115.41
2022-09-30T08:28:06.331Z,95118.38
2022-09-30T08:30:36.987Z,95117.56
2022-09-30T08:33:05.968Z,95119.16
2022-09-30T08:35:36.866Z,95118.06
2022-09-30T08:38:05.444Z,95128.78
2022-09-30T08:40:45.796Z,95134.13
2022-09-30T08:43:29.425Z,95131.41
2022-09-30T08:46:07.633Z,95127.38
2022-09-30T08:48:49.424Z,95132.44
2022-09-30T08:51:31.887Z,95124.63
2022-09-30T08:54:04.469Z,95134.56
2022-09-30T08:56:35.440Z,95124.28
2022-09-30T08:59:08.694Z,95131.25
2022-09-30T09:01:39.934Z,95136.34
2022-09-30T09:04:10.352Z,95144.66
2022-09-30T09:06:50.905Z,95140.59
2022-09-30T09:09:44.951Z,95137.09
2022-09-30T09:12:31.131Z,95134.41
2022-09-30T09:15:23.119Z,95145.13
2022-09-30T09:18:24.914Z,95103.56
2022-09-30T09:20:57.413Z,95140.69
2022-09-30T09:23:28.654Z,95137.69
2022-09-30T09:25:57.062Z,95122.06
2022-09-30T09:28:38.790Z,95126.00
2022-09-30T09:31:11.075Z,95133.00
2022-09-30T09:33:40.843Z,95125.41
2022-09-30T09:36:20.879Z,95124.31
2022-09-30T09:39:05.412Z,95130.22
2022-09-30T09:41:45.366Z,95130.41
2022-09-30T09:44:25.174Z,95126.59
2022-09-30T09:47:02.522Z,95129.19
2022-09-30T09:49:35.910Z,95125.97
2022-09-30T09:52:33.201Z,95128.91
2022-09-30T09:55:01.720Z,95108.03
2022-09-30T09:57:32.812Z,95131.91
2022-09-30T10:00:27.346Z,95093.84
2022-09-30T10:03:02.539Z,95128.16
2022-09-30T10:05:39.815Z,95123.31
2022-09-30T10:08:15.804Z,95129.47
2022-09-30T10:10:48.272Z,95119.44
2022-09-30T10:13:21.750Z,95127.63
2022-09-30T10:15:54.224Z,95128.91
2022-09-30T10:18:27.233Z,95071.44
2022-09-30T10:20:59.133Z,95113.06
2022-09-30T10:23:30.231Z,95109.66
2022-09-30T10:26:05.342Z,95100.16
2022-09-30T10:28:36.437Z,95114.75
2022-09-30T10:31:15.767Z,95105.91
2022-09-30T10:33:47.262Z,95112.22
2022-09-30T10:36:19.219Z,95084.78
2022-09-30T10:39:02.605Z,95099.81
2022-09-30T10:41:36.528Z,95087.09
2022-09-30T10:44:09.348Z,95113.50
2022-09-30T10:46:42.181Z,95116.03
2022-09-30T10:49:13.792Z,95110.47
2022-09-30T10:51:47.120Z,95107.50
2022-09-30T10:54:48.096Z,95077.88
2022-09-30T10:57:17.771Z,95087.91
2022-09-30T10:59:48.359Z,95093.13
2022-09-30T11:02:31.989Z,95103.91
2022-09-30T11:05:13.663Z,95098.22
2022-09-30T11:07:47.611Z,95102.31
2022-09-30T11:10:33.282Z,95102.72
2022-09-30T11:13:10.068Z,95107.44
2022-09-30T11:15:46.554Z,95100.81
2022-09-30T11:18:23.374Z,95108.31
2022-09-30T11:20:57.807Z,95110.44
2022-09-30T11:23:33.070Z,95111.44
2022-09-30T11:26:07.999Z,95117.66
2022-09-30T11:29:00.032Z,95070.66
2022-09-30T11:31:34.369Z,95115.34
2022-09-30T11:34:19.235Z,95110.81
2022-09-30T11:36:57.520Z,95107.72
2022-09-30T11:40:01.544Z,95107.94
2022-09-30T11:42:38.738Z,95114.50
2022-09-30T11:45:20.718Z,95106.84
2022-09-30T11:48:05.600Z,95111.47
2022-09-30T11:50:54.511Z,95107.59
2022-09-30T11:53:36.091Z,95109.22
2022-09-30T11:56:34.707Z,95105.53
2022-09-30T11:59:07.876Z,95095.06
2022-09-30T12:01:42.817Z,95107.84
2022-09-30T12:04:17.198Z,95122.16
2022-09-30T12:06:52.316Z,95114.72
2022-09-30T12:09:26.796Z,95124.84
2022-09-30T12:12:00.180Z,95125.81
2022-09-30T12:14:34.820Z,95121.03
2022-09-30T12:17:13.226Z,95060.47
2022-09-30T12:19:46.988Z,95117.25
2022-09-30T12:22:21.575Z,95114.56
2022-09-30T12:24:49.944Z,95127.53
2022-09-30T12:27:26.551Z,95114.31
2022-09-30T12:30:20.589Z,95129.50
2022-09-30T12:33:21.590Z,95132.28
2022-09-30T12:36:11.046Z,95131.06
2022-09-30T12:38:59.842Z,95136.41
2022-09-30T12:41:48.799Z,95112.31
2022-09-30T12:44:45.660Z,95139.31
2022-09-30T12:47:28.685Z,95143.41
2022-09-30T12:49:59.994Z,95141.13
2022-09-30T12:52:34.106Z,95146.50
2022-09-30T12:55:10.508Z,95142.72
2022-09-30T12:57:44.255Z,95140.31
2022-09-30T13:00:16.636Z,95140.41
2022-09-30T13:02:48.337Z,95139.03
2022-09-30T13:05:56.416Z,95139.97
2022-09-30T13:08:45.959Z,95134.38
2022-09-30T13:11:36.366Z,95137.88
2022-09-30T13:14:33.878Z,95139.50
2022-09-30T13:17:27.305Z,95136.50
2022-09-30T13:19:57.595Z,95136.31
2022-09-30T13:22:56.174Z,95138.75
2022-09-30T13:25:24.533Z,95140.28
2022-09-30T13:28:10.882Z,95143.31
2022-09-30T13:30:41.539Z,95140.78
2022-09-30T13:33:32.041Z,95149.59
2022-09-30T13:36:10.448Z,95140.19
2022-09-30T13:38:41.699Z,95143.66
2022-09-30T13:41:19.334Z,95123.75
2022-09-30T13:43:56.916Z,95148.50
2022-09-30T13:46:36.106Z,95142.97
2022-09-30T13:49:15.675Z,95151.97
2022-09-30T13:51:45.501Z,95138.59
2022-09-30T13:54:24.883Z,95155.78
2022-09-30T13:56:54.406Z,95163.00
2022-09-30T13:59:43.238Z,95141.25
2022-09-30T14:02:34.091Z,95152.88
2022-09-30T14:05:31.088Z,95145.69
2022-09-30T14:08:29.359Z,95156.16
2022-09-30T14:11:13.792Z,95114.03
2022-09-30T14:13:56.477Z,95162.47
2022-09-30T14:16:54.696Z,95156.25
2022-09-30T14:19:51.754Z,95159.78
2022-09-30T14:22:25.919Z,95165.66
2022-09-30T14:24:54.618Z,95161.88
2022-09-30T14:27:40.347Z,95160.25
2022-09-30T14:30:14.615Z,95164.38
2022-09-30T14:32:49.863Z,95158.50
2022-09-30T14:35:21.263Z,95160.31
2022-09-30T14:37:54.434Z,95154.91
2022-09-30T14:40:27.823Z,95156.94
2022-09-30T14:43:03.019Z,95142.25
2022-09-30T14:45:34.436Z,95148.53
2022-09-30T14:48:09.485Z,95155.16
2022-09-30T14:50:42.767Z,95154.97
2022-09-30T14:53:26.642Z,95155.56
2022-09-30T14:55:55.406Z,95158.53
2022-09-30T14:58:30.824Z,95154.50
2022-09-30T15:01:05.984Z,95150.59
2022-09-30T15:03:38.304Z,95126.75
2022-09-30T15:06:17.708Z,95145.09
2022-09-30T15:08:47.103Z,95139.78
2022-09-30T15:11:20.456Z,95145.00
2022-09-30T15:13:50.464Z,95146.19
2022-09-30T15:16:30.822Z,95142.00
2022-09-30T15:19:02.628Z,95149.63
2022-09-30T15:21:35.595Z,95112.63
2022-09-30T15:24:04.500Z,95115.75
2022-09-30T15:26:35.367Z,95159.00
2022-09-30T15:29:05.987Z,95086.09
2022-09-30T15:31:36.407Z,94966.66
2022-09-30T15:34:14.579Z,95160.19
2022-09-30T15:36:45.303Z,95153.38
2022-09-30T15:39:23.450Z,95155.28
2022-09-30T15:41:53.417Z,95149.75
2022-09-30T15:44:38.891Z,95098.09
2022-09-30T15:47:10.212Z,95165.25
2022-09-30T15:49:50.250Z,95094.19
2022-09-30T15:52:29.827Z,95168.66
2022-09-30T15:54:59.594Z,95164.13
2022-09-30T15:57:48.815Z,95155.81
2022-09-30T16:00:38.173Z,95134.09
2022-09-30T16:03:29.252Z,95163.94
2022-09-30T16:06:09.027Z,95171.94
2022-09-30T16:08:44.707Z,95177.81
2022-09-30T16:11:21.741Z,95144.78
2022-09-30T16:13:52.581Z,95173.16
2022-09-30T16:16:24.872Z,95109.66
2022-09-30T16:18:54.921Z,95178.75
2022-09-30T16:21:43.793Z,95183.34
2022-09-30T16:24:47.789Z,95181.06
2022-09-30T16:27:31.561Z,95185.72
2022-09-30T16:30:01.712Z,95186.91
2022-09-30T16:32:34.558Z,95127.22
2022-09-30T16:35:04.368Z,95174.03
2022-09-30T16:37:35.368Z,95186.28
2022-09-30T16:40:25.950Z,95189.88
2022-09-30T16:42:56.468Z,95149.34
2022-09-30T16:45:25.204Z,95182.19
2022-09-30T16:47:54.239Z,95188.22
2022-09-30T16:50:30.724Z,95184.81
2022-09-30T16:53:00.791Z,95190.28
2022-09-30T16:55:29.487Z,95184.16
2022-09-30T16:57:59.027Z,95191.50
2022-09-30T17:00:28.178Z,95182.94
2022-09-30T17:02:57.237Z,95179.75
2022-09-30T17:05:27.441Z,95185.19
2022-09-30T17:07:58.539Z,95186.88
2022-09-30T17:10:30.648Z,95143.03
2022-09-30T17:13:01.625Z,95174.16
2022-09-30T17:15:31.655Z,95161.28
2022-09-30T17:18:01.520Z,95178.97
2022-09-30T17:20:29.971Z,95183.31
2022-09-30T17:22:58.687Z,95190.06
2022-09-30T17:25:29.081Z,95164.59
2022-09-30T17:27:58.091Z,95174.81
2022-09-30T17:30:27.321Z,95170.03
2022-09-30T17:32:55.655Z,95174.94
2022-09-30T17:35:24.450Z,95108.34
2022-09-30T17:37:52.914Z,95172.38
2022-09-30T17:40:38.787Z,95176.19
2022-09-30T17:43:11.217Z,95176.25
2022-09-30T17:45:41.707Z,95175.19
2022-09-30T17:48:11.509Z,95167.94
2022-09-30T17:50:42.436Z,95174.72
2022-09-30T17:53:13.753Z,95176.06
2022-09-30T17:55:42.346Z,95172.88
2022-09-30T17:58:12.651Z,95188.22
2022-09-30T18:00:41.733Z,95189.59
2022-09-30T18:03:11.001Z,95190.16
2022-09-30T18:05:39.782Z,95195.28
2022-09-30T18:08:08.167Z,95196.13
2022-09-30T18:10:38.042Z,95193.19
2022-09-30T18:13:06.687Z,95188.09
2022-09-30T18:15:39.125Z,95214.47
2022-09-30T18:18:08.178Z,95180.94
2022-09-30T18:20:36.781Z,95180.13
2022-09-30T18:23:05.278Z,95192.69
2022-09-30T18:25:34.895Z,95194.06
2022-09-30T18:28:03.579Z,95188.97
2022-09-30T18:30:32.214Z,95188.97
2022-09-30T18:33:03.231Z,95189.00
2022-09-30T18:35:33.575Z,95187.69
2022-09-30T18:38:02.508Z,95195.81
2022-09-30T18:40:31.883Z,95199.59
2022-09-30T18:43:02.738Z,95206.69
2022-09-30T18:45:33.173Z,95196.75
2022-09-30T18:48:03.674Z,95114.81
2022-09-30T18:50:34.394Z,95203.28
2022-09-30T18:53:09.509Z,95206.00
2022-09-30T18:55:39.156Z,95196.59
2022-09-30T18:58:07.902Z,95209.00
2022-09-30T19:00:36.932Z,95207.69
2022-09-30T19:03:10.648Z,95216.81
2022-09-30T19:05:39.296Z,95213.66
2022-09-30T19:08:08.879Z,95212.03
2022-09-30T19:10:42.516Z,95214.19
2022-09-30T19:13:11.581Z,95214.47
2022-09-30T19:15:40.766Z,95218.78
2022-09-30T19:18:11.903Z,95226.03
2022-09-30T19:20:42.150Z,95221.22
2022-09-30T19:23:11.088Z,95220.63
2022-09-30T19:25:40.678Z,95228.16
2022-09-30T19:28:09.202Z,95222.50
2022-09-30T19:30:42.385Z,95223.88
2022-09-30T19:33:12.407Z,95216.91
2022-09-30T19:35:41.172Z,95217.97
2022-09-30T19:38:09.912Z,95215.84
2022-09-30T19:40:38.261Z,95224.41
2022-09-30T19:43:08.365Z,95216.34
2022-09-30T19:45:36.783Z,95217.41
2022-09-30T19:48:05.348Z,95216.09
2022-09-30T19:50:37.239Z,95213.69
2022-09-30T19:53:05.878Z,95211.53
2022-09-30T19:55:48.521Z,95176.09
2022-09-30T19:58:18.979Z,95204.00
2022-09-30T20:00:56.498Z,95200.50
2022-09-30T20:03:29.243Z,95175.03
2022-09-30T20:06:05.016Z,95185.75
2022-09-30T20:08:36.202Z,95191.13
2022-09-30T20:11:05.571Z,95176.63
2022-09-30T20:13:34.517Z,95181.19
2022-09-30T20:16:02.924Z,95173.16
2022-09-30T20:18:31.599Z,95180.91
2022-09-30T20:21:00.096Z,95148.75
2022-09-30T20:23:30.197Z,95177.16
2022-09-30T20:26:02.348Z,95170.22
2022-09-30T20:28:30.782Z,95115.50
2022-09-30T20:30:59.734Z,95183.09
2022-09-30T20:33:28.082Z,95177.72
2022-09-30T20:35:56.734Z,95189.53
2022-09-30T20:38:25.694Z,95187.09
2022-09-30T20:40:59.398Z,95191.13
2022-09-30T20:43:30.217Z,95183.09
2022-09-30T20:46:01.253Z,95185.50
2022-09-30T20:48:33.576Z,95186.84
2022-09-30T20:51:05.286Z,95183.91
2022-09-30T20:53:34.291Z,95176.09
2022-09-30T20:56:04.359Z,95170.75
2022-09-30T20:58:32.987Z,95175.31
2022-09-30T21:01:05.490Z,95191.69
2022-09-30T21:03:36.471Z,95141.25
2022-09-30T21:06:05.012Z,95189.00
2022-09-30T21:08:33.668Z,95183.63
2022-09-30T21:11:05.102Z,95181.47
2022-09-30T21:13:33.627Z,95183.63
2022-09-30T21:16:02.462Z,95179.84
2022-09-30T21:18:30.936Z,95130.78
2022-09-30T21:21:00.635Z,95192.22
2022-09-30T21:23:30.202Z,95141.78
2022-09-30T21:25:59.170Z,95194.38
2022-09-30T21:28:29.459Z,95190.59
2022-09-30T21:30:58.011Z,95185.75
2022-09-30T21:33:28.086Z,95199.47
2022-09-30T21:36:01.752Z,95194.38
2022-09-30T21:38:30.755Z,95193.28
2022-09-30T21:41:00.631Z,95179.34
2022-09-30T21:43:32.439Z,95201.88
2022-09-30T21:46:02.377Z,95191.94
2022-09-30T21:48:33.312Z,95174.22
2022-09-30T21:51:02.435Z,95199.72
2022-09-30T21:53:30.862Z,95176.91
2022-09-30T21:56:01.075Z,95191.94
2022-09-30T21:58:34.371Z,95178.25
2022-09-30T22:01:04.293Z,95179.84
2022-09-30T22:03:37.485Z,95178.25
2022-09-30T22:06:08.380Z,95180.41
2022-09-30T22:08:40.320Z,95176.09
2022-09-30T22:11:11.438Z,95152.50
2022-09-30T22:13:43.552Z,95148.75
2022-09-30T22:16:12.486Z,95134.81
2022-09-30T22:18:40.823Z,95175.03
2022-09-30T22:21:11.679Z,95178.50
2022-09-30T22:23:40.398Z,95191.41
2022-09-30T22:26:09.914Z,95173.44
2022-09-30T22:28:38.496Z,95171.84
2022-09-30T22:31:16.564Z,95163.78
2022-09-30T22:34:02.171Z,95171.31
2022-09-30T22:36:47.558Z,95167.53
2022-09-30T22:39:15.976Z,95165.41
2022-09-30T22:41:44.643Z,95160.03
2022-09-30T22:44:13.450Z,95160.56
2022-09-30T22:46:43.489Z,95150.88
2022-09-30T22:49:11.928Z,95157.59
2022-09-30T22:51:40.700Z,95153.03
2022-09-30T22:54:09.350Z,95154.91
2022-09-30T22:56:37.696Z,95127.31
2022-09-30T22:59:07.045Z,95086.28
2022-09-30T23:01:35.659Z,95131.84
2022-09-30T23:04:06.562Z,95127.81
2022-09-30T23:06:34.847Z,95125.16
2022-09-30T23:09:06.353Z,95134.78
2022-09-30T23:11:35.888Z,95139.09
2022-09-30T23:14:04.671Z,95092.16
2022-09-30T23:16:33.194Z,95137.72
2022-09-30T23:19:01.864Z,95124.34
2022-09-30T23:21:32.378Z,95131.31
2022-09-30T23:24:01.235Z,95138.81
2022-09-30T23:26:31.383Z,95136.66
2022-09-30T23:29:01.000Z,95104.75
2022-09-30T23:31:30.047Z,95131.03
2022-09-30T23:34:00.446Z,95136.41
2022-09-30T23:36:30.639Z,95108.28
2022-09-30T23:39:03.953Z,95136.41
2022-09-30T23:41:34.516Z,95112.28
2022-09-30T23:44:04.459Z,95137.47
2022-09-30T23:46:33.706Z,95130.50
2022-09-30T23:49:02.079Z,95143.63
2022-09-30T23:51:34.486Z,95132.38
2022-09-30T23:54:04.862Z,95128.88
2022-09-30T23:56:33.463Z,95132.66
2022-09-30T23:59:01.818Z,95088.69
